Time;durP1;ratioP1;P1;durP2;ratioP2;P2;SDS_P1;SDS_P2;PMS_P1;PMS_P2;Temp;Humidity;BMP_temperature;BMP_pressure;BME280_temperature;BME280_humidity;BME280_pressure;Samples;Min_cycle;Max_cycle;Signal;HPM_P1;HPM_P2
2023/04/15 00:02:17;;;;;;;7.93;3.42;;;8.70;65.90;;;;;;5055064;28;20039;-77
2023/04/15 00:04:45;;;;;;;7.93;3.42;;;8.70;65.90;;;;;;5069838;28;20499;-78
2023/04/15 00:07:11;;;;;;;5.35;3.08;;;8.70;65.90;;;;;;5035805;28;20067;-77
2023/04/15 00:09:37;;;;;;;7.35;3.20;;;8.70;66.00;;;;;;5055360;28;20037;-77
2023/04/15 00:12:04;;;;;;;8.48;3.22;;;8.60;66.10;;;;;;5056788;28;20044;-78
2023/04/15 00:14:30;;;;;;;8.40;3.03;;;8.60;66.30;;;;;;5053890;28;20044;-78
2023/04/15 00:16:56;;;;;;;8.38;3.47;;;8.60;66.30;;;;;;5056791;28;20044;-78
2023/04/15 00:19:23;;;;;;;6.18;3.33;;;8.50;66.50;;;;;;5040082;28;20047;-77
2023/04/15 00:21:49;;;;;;;9.02;3.42;;;8.50;66.60;;;;;;5073056;28;20040;-78
2023/04/15 00:24:14;;;;;;;7.22;3.08;;;8.40;66.70;;;;;;5056093;28;20040;-77
2023/04/15 00:26:40;;;;;;;10.40;3.80;;;8.40;66.80;;;;;;5053176;28;20036;-77
2023/04/15 00:29:06;;;;;;;6.82;3.17;;;8.30;67.00;;;;;;5036249;28;20114;-77
2023/04/15 00:31:31;;;;;;;5.35;3.42;;;8.30;67.00;;;;;;5035266;28;20028;-77
2023/04/15 00:33:58;;;;;;;6.32;2.95;;;8.30;67.20;;;;;;5045274;28;20074;-78
2023/04/15 00:36:25;;;;;;;6.20;3.10;;;8.30;67.30;;;;;;5056328;28;20094;-78
2023/04/15 00:38:50;;;;;;;8.88;3.50;;;8.20;67.40;;;;;;5036826;28;20041;-77
2023/04/15 00:41:18;;;;;;;5.85;2.88;;;8.20;67.40;;;;;;5003731;28;20559;-77
2023/04/15 00:43:43;;;;;;;9.02;3.72;;;8.20;67.60;;;;;;5038568;28;20399;-78
2023/04/15 00:46:13;;;;;;;9.45;3.38;;;8.20;67.50;;;;;;5055840;28;20029;-78
2023/04/15 00:48:39;;;;;;;9.82;4.25;;;8.20;67.60;;;;;;5033640;28;20105;-78
2023/04/15 00:51:06;;;;;;;6.63;3.00;;;8.20;67.60;;;;;;5036685;28;20040;-78
2023/04/15 00:53:32;;;;;;;7.38;2.90;;;8.20;67.70;;;;;;5037663;28;20037;-78
2023/04/15 00:55:57;;;;;;;5.20;3.08;;;8.20;67.60;;;;;;5039105;28;20036;-77
2023/04/15 00:58:23;;;;;;;8.95;3.92;;;8.10;67.50;;;;;;5056521;28;20048;-78
2023/04/15 01:00:53;;;;;;;7.43;3.17;;;8.10;67.60;;;;;;5022675;28;20503;-77
2023/04/15 01:03:19;;;;;;;6.47;3.58;;;8.10;67.70;;;;;;5037104;28;20075;-77
2023/04/15 01:05:45;;;;;;;6.80;3.90;;;8.10;67.70;;;;;;5021430;28;20045;-77
2023/04/15 01:08:11;;;;;;;10.45;4.30;;;8.10;67.70;;;;;;5039013;28;20040;-77
2023/04/15 01:10:38;;;;;;;6.75;3.38;;;8.10;67.80;;;;;;5058878;28;20040;-78
2023/04/15 01:13:04;;;;;;;5.68;3.05;;;8.10;67.80;;;;;;5035571;28;20519;-78
2023/04/15 01:15:30;;;;;;;7.20;3.83;;;8.10;67.90;;;;;;5046072;28;20069;-77
2023/04/15 01:18:01;;;;;;;7.65;3.50;;;8.10;67.90;;;;;;5039210;28;20037;-77
2023/04/15 01:20:28;;;;;;;6.07;3.30;;;8.00;67.90;;;;;;5027610;28;20074;-77
2023/04/15 01:22:55;;;;;;;7.55;3.90;;;8.00;68.00;;;;;;5055042;28;20068;-77
2023/04/15 01:25:32;;;;;;;12.57;4.75;;;8.00;68.10;;;;;;5055250;28;20033;-77
2023/04/15 01:27:58;;;;;;;8.07;4.10;;;8.00;68.20;;;;;;5042192;28;20427;-78
2023/04/15 01:30:25;;;;;;;7.32;3.75;;;7.90;68.10;;;;;;5059007;28;20380;-78
2023/04/15 01:32:51;;;;;;;7.60;4.00;;;7.90;68.10;;;;;;5059086;28;20135;-77
2023/04/15 01:35:17;;;;;;;8.98;4.25;;;7.90;68.20;;;;;;5056070;28;20399;-78
2023/04/15 01:37:44;;;;;;;6.38;3.80;;;7.90;68.20;;;;;;5025805;28;20036;-77
2023/04/15 01:40:10;;;;;;;9.15;4.63;;;7.90;68.30;;;;;;5058820;28;20028;-77
2023/04/15 01:42:36;;;;;;;9.50;4.65;;;7.80;68.40;;;;;;5040539;28;20048;-77
2023/04/15 01:45:02;;;;;;;7.60;4.72;;;7.80;68.50;;;;;;5057859;28;20036;-77
2023/04/15 01:47:28;;;;;;;7.78;4.20;;;7.80;68.60;;;;;;5074709;28;20108;-77
2023/04/15 01:49:53;;;;;;;7.80;4.70;;;7.70;68.50;;;;;;5023282;28;20543;-77
2023/04/15 01:52:19;;;;;;;9.00;4.28;;;7.70;68.70;;;;;;5061963;28;20438;-77
2023/04/15 01:54:45;;;;;;;7.55;4.55;;;7.70;69.10;;;;;;5057955;28;20044;-77
2023/04/15 01:57:11;;;;;;;9.40;5.25;;;7.70;68.80;;;;;;5043355;28;20039;-77
2023/04/15 01:59:37;;;;;;;9.95;4.20;;;7.70;68.80;;;;;;5074540;28;20105;-78
2023/04/15 02:02:03;;;;;;;5.75;4.25;;;7.60;68.80;;;;;;5057763;28;20040;-77
2023/04/15 02:04:29;;;;;;;9.30;4.45;;;7.60;68.90;;;;;;5074964;28;20119;-77
2023/04/15 02:06:55;;;;;;;6.45;4.15;;;7.60;68.90;;;;;;5077790;28;20074;-77
2023/04/15 02:09:21;;;;;;;10.60;5.30;;;7.60;68.90;;;;;;5057731;28;20031;-77
2023/04/15 02:11:47;;;;;;;8.30;4.60;;;7.60;69.00;;;;;;5052776;28;20036;-78
2023/04/15 02:14:13;;;;;;;10.77;5.45;;;7.60;69.00;;;;;;5072188;28;20049;-77
2023/04/15 02:16:39;;;;;;;7.53;4.60;;;7.60;69.00;;;;;;5075067;28;20036;-77
2023/04/15 02:19:05;;;;;;;8.68;4.75;;;7.60;69.10;;;;;;5041918;28;20050;-77
2023/04/15 02:21:30;;;;;;;8.30;4.93;;;7.60;69.10;;;;;;5041562;28;20040;-77
2023/04/15 02:23:56;;;;;;;10.25;4.90;;;7.50;69.00;;;;;;5024975;28;20499;-77
2023/04/15 02:26:23;;;;;;;8.32;4.30;;;7.50;69.00;;;;;;5041208;28;20407;-77
2023/04/15 02:28:50;;;;;;;6.80;4.68;;;7.60;69.00;;;;;;5060380;28;20044;-78
2023/04/15 02:31:16;;;;;;;8.88;5.22;;;7.50;68.90;;;;;;5055061;28;20036;-77
2023/04/15 02:33:42;;;;;;;8.77;5.15;;;7.50;69.30;;;;;;5040666;28;20036;-78
2023/04/15 02:36:09;;;;;;;7.22;4.78;;;7.50;68.90;;;;;;5064586;28;20033;-77
2023/04/15 02:38:34;;;;;;;6.43;4.65;;;7.50;69.00;;;;;;5041470;28;20116;-77
2023/04/15 02:41:00;;;;;;;7.80;4.72;;;7.40;69.00;;;;;;5038224;28;20171;-78
2023/04/15 02:43:26;;;;;;;6.70;4.78;;;7.40;69.00;;;;;;5018276;28;20127;-77
2023/04/15 02:45:52;;;;;;;6.65;4.65;;;7.40;69.10;;;;;;5058078;28;20132;-78
2023/04/15 02:48:19;;;;;;;9.88;4.88;;;7.40;69.20;;;;;;5057514;28;20552;-77
2023/04/15 02:50:45;;;;;;;9.05;5.18;;;7.40;69.20;;;;;;5057164;28;20452;-77
2023/04/15 02:53:13;;;;;;;9.27;5.22;;;7.30;69.20;;;;;;5041267;28;20047;-77
2023/04/15 02:55:39;;;;;;;6.88;5.35;;;7.30;69.30;;;;;;5041115;28;20138;-77
2023/04/15 02:58:05;;;;;;;6.72;5.05;;;7.30;69.40;;;;;;5058249;28;20044;-77
2023/04/15 03:00:31;;;;;;;8.38;5.32;;;7.20;69.40;;;;;;5057795;28;20032;-77
2023/04/15 03:03:01;;;;;;;8.40;4.95;;;7.20;69.40;;;;;;5057666;28;20490;-77
2023/04/15 03:05:26;;;;;;;9.90;5.70;;;7.20;69.50;;;;;;5053596;28;20086;-77
2023/04/15 03:07:53;;;;;;;10.30;5.50;;;7.20;69.50;;;;;;5073193;28;20036;-77
2023/04/15 03:10:19;;;;;;;7.97;6.28;;;7.20;69.60;;;;;;5054433;28;20029;-76
2023/04/15 03:12:45;;;;;;;7.47;5.60;;;7.20;69.70;;;;;;5060853;28;20032;-77
2023/04/15 03:15:11;;;;;;;8.18;5.53;;;7.10;69.60;;;;;;5041202;28;20454;-77
2023/04/15 03:17:37;;;;;;;7.63;5.00;;;7.10;69.70;;;;;;5036912;28;20036;-76
2023/04/15 03:20:06;;;;;;;7.75;4.70;;;7.10;69.90;;;;;;5085485;28;20040;-77
2023/04/15 03:22:32;;;;;;;7.28;5.00;;;7.00;69.80;;;;;;5061079;28;20403;-77
2023/04/15 03:24:58;;;;;;;8.35;4.82;;;7.00;69.80;;;;;;5061167;28;20075;-77
2023/04/15 03:27:24;;;;;;;8.55;5.10;;;7.00;69.90;;;;;;5043233;28;20461;-77
2023/04/15 03:29:50;;;;;;;8.55;5.55;;;7.00;70.00;;;;;;5044262;28;20087;-77
2023/04/15 03:32:16;;;;;;;9.02;4.50;;;7.00;70.00;;;;;;5062857;28;20086;-77
2023/04/15 03:34:42;;;;;;;6.82;5.10;;;6.90;70.00;;;;;;5060806;28;20040;-77
2023/04/15 03:37:08;;;;;;;7.85;4.75;;;6.90;70.00;;;;;;5044198;28;20483;-77
2023/04/15 03:39:34;;;;;;;5.30;4.40;;;6.90;70.00;;;;;;5061226;28;20047;-77
2023/04/15 03:42:00;;;;;;;6.75;5.05;;;6.90;70.00;;;;;;5044170;28;20480;-77
2023/04/15 03:44:27;;;;;;;6.68;5.22;;;6.90;70.10;;;;;;5057624;28;20041;-77
2023/04/15 03:46:53;;;;;;;7.63;4.70;;;6.90;70.00;;;;;;5058978;28;20036;-77
2023/04/15 03:49:19;;;;;;;10.13;4.95;;;6.90;70.10;;;;;;5042975;28;20390;-77
2023/04/15 03:51:45;;;;;;;7.20;5.18;;;6.80;70.10;;;;;;5077354;28;20165;-77
2023/04/15 03:54:14;;;;;;;8.80;5.72;;;6.90;70.10;;;;;;5057803;28;20119;-77
2023/04/15 03:56:39;;;;;;;10.10;5.30;;;6.90;70.20;;;;;;5044864;28;20052;-77
2023/04/15 03:59:05;;;;;;;7.28;5.28;;;6.80;70.10;;;;;;5027676;28;20486;-76
2023/04/15 04:01:31;;;;;;;9.40;5.40;;;6.80;70.10;;;;;;5043062;28;20036;-76
2023/04/15 04:03:57;;;;;;;6.20;5.07;;;6.80;70.10;;;;;;5030125;28;20559;-77
2023/04/15 04:06:22;;;;;;;6.30;4.70;;;6.80;70.10;;;;;;5060023;28;20052;-76
2023/04/15 04:08:48;;;;;;;7.43;5.45;;;6.80;70.20;;;;;;5039918;28;20036;-77
2023/04/15 04:11:14;;;;;;;7.25;5.13;;;6.80;70.20;;;;;;5039196;28;20036;-76
2023/04/15 04:13:40;;;;;;;9.52;5.32;;;6.80;70.30;;;;;;5025599;28;20063;-77
2023/04/15 04:16:06;;;;;;;7.28;5.00;;;6.80;70.30;;;;;;5053086;28;20514;-77
2023/04/15 04:18:32;;;;;;;6.85;5.25;;;6.80;70.30;;;;;;5056468;28;20032;-77
2023/04/15 04:20:58;;;;;;;6.18;4.82;;;6.70;70.30;;;;;;5076402;28;20043;-76
2023/04/15 04:23:24;;;;;;;7.40;5.70;;;6.80;70.30;;;;;;5059748;28;20036;-77
2023/04/15 04:25:50;;;;;;;9.52;5.25;;;6.70;70.30;;;;;;5073207;28;20480;-76
2023/04/15 04:28:15;;;;;;;7.80;4.93;;;6.70;70.30;;;;;;5073029;28;20059;-77
2023/04/15 04:30:41;;;;;;;7.70;5.32;;;6.70;70.20;;;;;;5068378;28;20044;-77
2023/04/15 04:33:07;;;;;;;7.10;4.50;;;6.70;70.20;;;;;;5073853;28;20089;-77
2023/04/15 04:35:36;;;;;;;7.15;5.05;;;6.70;70.20;;;;;;5059682;28;20048;-76
2023/04/15 04:38:02;;;;;;;6.97;4.90;;;6.70;70.20;;;;;;5028480;28;20120;-77
2023/04/15 04:40:28;;;;;;;8.45;5.32;;;6.70;70.20;;;;;;5075584;28;20036;-76
2023/04/15 04:42:54;;;;;;;10.35;6.25;;;6.70;70.20;;;;;;5059666;28;20047;-76
2023/04/15 04:45:19;;;;;;;7.10;4.97;;;6.70;70.20;;;;;;5024583;28;20166;-76
2023/04/15 04:47:46;;;;;;;8.25;5.05;;;6.70;70.10;;;;;;5026271;28;20036;-76
2023/04/15 04:50:12;;;;;;;7.75;5.40;;;6.70;70.10;;;;;;5058910;28;20034;-76
2023/04/15 04:52:38;;;;;;;9.75;5.60;;;6.70;70.10;;;;;;5059246;28;20036;-76
2023/04/15 04:55:04;;;;;;;7.53;5.28;;;6.70;70.00;;;;;;5042698;28;20047;-76
2023/04/15 04:57:30;;;;;;;7.28;5.55;;;6.70;70.10;;;;;;5076355;28;20075;-76
2023/04/15 04:59:56;;;;;;;9.02;5.97;;;6.70;70.10;;;;;;5041401;28;20554;-76
2023/04/15 05:02:22;;;;;;;6.93;5.07;;;6.70;70.00;;;;;;5059033;28;20071;-75
2023/04/15 05:04:49;;;;;;;8.82;5.90;;;6.60;70.00;;;;;;5025815;28;20071;-76
2023/04/15 05:07:14;;;;;;;8.20;6.20;;;6.70;70.00;;;;;;5056479;28;20044;-76
2023/04/15 05:09:40;;;;;;;8.73;5.85;;;6.60;70.10;;;;;;5042431;28;20036;-76
2023/04/15 05:12:07;;;;;;;7.60;6.10;;;6.60;70.10;;;;;;5057873;28;20062;-76
2023/04/15 05:14:33;;;;;;;8.95;6.10;;;6.60;70.20;;;;;;5057899;28;20044;-76
2023/04/15 05:16:59;;;;;;;8.95;7.03;;;6.60;70.30;;;;;;5055731;28;20132;-76
2023/04/15 05:19:25;;;;;;;12.05;7.68;;;6.60;70.40;;;;;;5059736;28;20037;-76
2023/04/15 05:21:50;;;;;;;10.40;8.07;;;6.60;70.50;;;;;;5022649;28;20090;-76
2023/04/15 05:24:17;;;;;;;11.60;9.07;;;6.60;70.60;;;;;;5074790;28;20063;-76
2023/04/15 05:26:42;;;;;;;13.15;9.60;;;6.60;70.90;;;;;;5075730;28;20097;-75
2023/04/15 05:29:08;;;;;;;13.68;9.75;;;6.60;71.10;;;;;;5042243;28;20056;-76
2023/04/15 05:31:34;;;;;;;12.68;10.32;;;6.60;71.60;;;;;;5058605;28;20591;-76
2023/04/15 05:34:00;;;;;;;14.80;10.00;;;6.60;72.00;;;;;;5039236;28;20059;-76
2023/04/15 05:36:26;;;;;;;12.52;10.07;;;6.70;72.40;;;;;;5058958;28;20051;-76
2023/04/15 05:38:52;;;;;;;13.23;9.52;;;6.70;72.50;;;;;;5057342;28;20044;-76
2023/04/15 05:41:18;;;;;;;14.05;10.70;;;6.80;72.70;;;;;;5075187;28;20028;-76
2023/04/15 05:43:43;;;;;;;13.25;10.20;;;6.80;72.80;;;;;;5078027;28;20483;-76
2023/04/15 05:46:09;;;;;;;11.13;9.27;;;6.90;73.00;;;;;;5039865;28;20064;-76
2023/04/15 05:48:35;;;;;;;11.32;8.50;;;7.00;73.20;;;;;;5058106;28;20044;-76
2023/04/15 05:51:01;;;;;;;12.52;8.77;;;7.10;73.40;;;;;;5055745;28;20414;-76
2023/04/15 05:53:26;;;;;;;12.63;8.50;;;7.20;73.80;;;;;;5041190;28;20052;-76
2023/04/15 05:55:52;;;;;;;13.80;8.45;;;7.30;73.80;;;;;;5075151;28;20039;-76
2023/04/15 05:58:18;;;;;;;12.45;8.93;;;7.40;73.70;;;;;;5074527;28;20479;-76
2023/04/15 06:00:45;;;;;;;12.23;8.93;;;7.60;73.50;;;;;;5024434;28;20058;-76
2023/04/15 06:03:11;;;;;;;13.20;9.80;;;7.70;73.20;;;;;;5057763;28;20450;-76
2023/04/15 06:05:37;;;;;;;12.32;8.50;;;7.80;73.00;;;;;;5058197;28;20043;-76
2023/04/15 06:08:03;;;;;;;11.70;9.38;;;7.90;72.90;;;;;;5041605;28;20036;-76
2023/04/15 06:10:29;;;;;;;12.40;9.30;;;8.00;72.70;;;;;;5058010;28;20441;-76
2023/04/15 06:12:55;;;;;;;12.50;9.88;;;8.10;72.40;;;;;;5058022;28;20448;-76
2023/04/15 06:15:21;;;;;;;14.55;9.63;;;8.20;72.20;;;;;;5057641;28;20079;-76
2023/04/15 06:17:47;;;;;;;13.70;9.90;;;8.20;72.00;;;;;;5040882;28;20080;-76
2023/04/15 06:20:13;;;;;;;14.75;11.25;;;8.20;71.90;;;;;;5060955;28;20079;-76
2023/04/15 06:22:39;;;;;;;13.20;9.63;;;8.20;71.80;;;;;;5057592;28;20048;-76
2023/04/15 06:25:06;;;;;;;13.20;10.63;;;8.30;71.80;;;;;;5042176;28;20173;-76
2023/04/15 06:27:32;;;;;;;11.60;9.25;;;8.20;71.70;;;;;;5026453;28;20044;-76
2023/04/15 06:29:58;;;;;;;13.95;10.63;;;8.20;71.90;;;;;;5057447;28;20146;-76
2023/04/15 06:32:24;;;;;;;12.10;9.77;;;8.20;71.90;;;;;;5057104;28;20040;-76
2023/04/15 06:34:50;;;;;;;13.20;9.70;;;8.20;72.60;;;;;;5041130;28;20376;-76
2023/04/15 06:37:15;;;;;;;13.38;9.38;;;8.30;72.30;;;;;;5056011;28;20059;-77
2023/04/15 06:39:42;;;;;;;14.20;10.48;;;8.20;72.50;;;;;;5057848;28;20036;-76
2023/04/15 06:42:09;;;;;;;12.77;9.18;;;8.20;72.80;;;;;;5040673;28;20052;-76
2023/04/15 06:44:36;;;;;;;14.05;10.20;;;8.30;73.10;;;;;;5053145;28;20037;-76
2023/04/15 06:47:02;;;;;;;12.98;9.82;;;8.30;73.30;;;;;;5041797;28;20032;-76
2023/04/15 06:49:28;;;;;;;14.10;10.00;;;8.30;73.60;;;;;;5075748;28;20044;-76
2023/04/15 06:51:53;;;;;;;13.40;9.60;;;8.30;73.80;;;;;;5061149;28;20039;-76
2023/04/15 06:54:19;;;;;;;10.95;9.00;;;8.30;74.20;;;;;;5077816;28;20075;-77
2023/04/15 06:56:45;;;;;;;11.32;9.15;;;8.30;74.30;;;;;;5057913;28;20124;-77
2023/04/15 06:59:11;;;;;;;11.82;8.95;;;8.30;74.60;;;;;;5075095;28;20044;-77
2023/04/15 07:01:37;;;;;;;11.70;9.32;;;8.40;75.50;;;;;;5045011;28;20495;-77
2023/04/15 07:04:03;;;;;;;13.27;9.50;;;8.40;75.40;;;;;;5044794;28;20111;-77
2023/04/15 07:06:28;;;;;;;12.25;10.23;;;8.50;75.60;;;;;;5061289;28;20047;-77
2023/04/15 07:08:54;;;;;;;11.45;9.20;;;8.50;75.90;;;;;;5058456;28;20036;-77
2023/04/15 07:11:21;;;;;;;13.93;10.25;;;8.60;76.40;;;;;;5055230;28;20063;-77
2023/04/15 07:13:46;;;;;;;15.30;10.88;;;8.60;76.60;;;;;;5060766;28;20114;-77
2023/04/15 07:16:12;;;;;;;14.77;10.82;;;8.70;77.00;;;;;;5042116;28;20123;-77
2023/04/15 07:18:38;;;;;;;13.15;10.23;;;8.70;77.00;;;;;;5067460;28;20058;-77
2023/04/15 07:21:03;;;;;;;11.82;9.68;;;8.80;77.00;;;;;;5056432;28;20055;-77
2023/04/15 07:23:29;;;;;;;11.55;8.98;;;8.90;77.20;;;;;;5069610;28;20051;-77
2023/04/15 07:25:55;;;;;;;13.38;9.73;;;8.90;77.00;;;;;;5053411;28;20131;-77
2023/04/15 07:28:21;;;;;;;17.10;9.88;;;8.90;77.00;;;;;;5062053;28;20051;-77
2023/04/15 07:30:47;;;;;;;13.55;10.10;;;9.00;77.20;;;;;;5067127;28;20035;-77
2023/04/15 07:33:13;;;;;;;13.93;9.93;;;9.00;77.50;;;;;;5050975;28;20074;-77
2023/04/15 07:35:39;;;;;;;11.55;9.52;;;9.10;77.60;;;;;;5066191;28;20623;-77
2023/04/15 07:38:05;;;;;;;15.07;9.02;;;9.10;77.90;;;;;;5060572;28;20096;-77
2023/04/15 07:40:31;;;;;;;13.98;9.75;;;9.20;78.30;;;;;;5048167;28;20048;-76
2023/04/15 07:42:57;;;;;;;15.52;9.80;;;9.40;78.50;;;;;;5050896;28;20039;-78
2023/04/15 07:45:23;;;;;;;13.23;10.43;;;9.50;78.40;;;;;;5039246;28;20118;-78
2023/04/15 07:47:50;;;;;;;15.60;10.20;;;9.60;78.60;;;;;;5061992;28;20168;-77
2023/04/15 07:50:16;;;;;;;13.02;10.05;;;9.70;78.30;;;;;;5060912;28;20073;-78
2023/04/15 07:52:42;;;;;;;14.25;10.02;;;9.80;77.80;;;;;;5063275;28;20063;-79
2023/04/15 07:55:08;;;;;;;12.25;9.35;;;9.90;77.60;;;;;;5046365;28;20032;-78
2023/04/15 07:57:35;;;;;;;12.18;9.55;;;10.10;77.60;;;;;;5081811;28;20051;-78
2023/04/15 08:00:04;;;;;;;13.60;8.75;;;10.10;77.70;;;;;;5064358;28;20074;-78
2023/04/15 08:02:31;;;;;;;12.32;9.27;;;10.30;76.90;;;;;;5049029;28;20067;-78
2023/04/15 08:04:57;;;;;;;10.38;8.35;;;10.40;76.90;;;;;;5050906;28;20043;-78
2023/04/15 08:07:24;;;;;;;9.75;7.60;;;10.40;76.20;;;;;;5050323;28;20040;-78
2023/04/15 08:09:50;;;;;;;11.23;8.75;;;10.50;75.70;;;;;;5085203;28;20035;-76
2023/04/15 08:12:15;;;;;;;10.88;7.93;;;10.60;75.60;;;;;;5065453;28;20103;-76
2023/04/15 08:14:41;;;;;;;10.15;7.57;;;10.60;75.40;;;;;;5046949;28;20108;-76
2023/04/15 08:17:07;;;;;;;10.05;7.43;;;10.70;75.20;;;;;;5061948;28;20044;-76
2023/04/15 08:19:33;;;;;;;9.85;6.93;;;10.80;74.60;;;;;;5061747;28;20043;-76
2023/04/15 08:21:59;;;;;;;10.85;6.03;;;10.90;74.50;;;;;;5054620;28;20062;-77
2023/04/15 08:24:25;;;;;;;8.85;6.15;;;11.00;74.20;;;;;;5045261;28;20035;-76
2023/04/15 08:26:51;;;;;;;8.00;6.03;;;11.00;73.20;;;;;;5049323;28;20036;-77
2023/04/15 08:29:17;;;;;;;7.45;5.68;;;11.00;72.70;;;;;;5062284;28;20070;-76
2023/04/15 08:31:43;;;;;;;7.53;5.07;;;11.10;72.60;;;;;;5047718;28;20108;-77
2023/04/15 08:34:11;;;;;;;8.65;5.22;;;11.10;72.20;;;;;;5046740;28;20407;-77
2023/04/15 08:36:37;;;;;;;6.20;4.28;;;11.20;72.00;;;;;;5057259;28;20124;-76
2023/04/15 08:39:03;;;;;;;6.78;3.95;;;11.10;70.70;;;;;;5079277;28;20048;-76
2023/04/15 08:41:38;;;;;;;7.35;4.43;;;11.10;70.70;;;;;;5063123;28;20063;-76
2023/04/15 08:44:05;;;;;;;7.15;4.18;;;11.20;70.60;;;;;;5078342;28;20094;-77
2023/04/15 08:46:34;;;;;;;6.35;4.18;;;11.20;71.10;;;;;;5061293;28;20092;-77
2023/04/15 08:49:03;;;;;;;6.90;4.43;;;11.20;71.50;;;;;;5062198;28;20031;-76
2023/04/15 08:51:30;;;;;;;7.35;4.18;;;11.30;70.90;;;;;;5059209;28;20034;-77
2023/04/15 08:53:56;;;;;;;7.05;4.20;;;11.30;69.50;;;;;;5079838;28;20088;-77
2023/04/15 08:56:26;;;;;;;6.50;4.07;;;11.30;69.30;;;;;;5067025;28;20043;-76
2023/04/15 08:58:52;;;;;;;6.68;4.15;;;11.30;69.40;;;;;;5070098;28;20089;-77
2023/04/15 09:01:19;;;;;;;7.10;3.95;;;11.30;69.30;;;;;;5059545;28;20118;-77
2023/04/15 09:03:46;;;;;;;6.10;3.40;;;11.30;68.70;;;;;;5078995;28;20039;-76
2023/04/15 09:06:12;;;;;;;7.25;4.47;;;11.30;68.50;;;;;;5047227;28;20028;-76
2023/04/15 09:08:38;;;;;;;5.93;3.63;;;11.30;68.60;;;;;;5049326;28;20047;-76
2023/04/15 09:11:04;;;;;;;6.03;3.90;;;11.40;69.00;;;;;;5078422;28;20403;-77
2023/04/15 09:13:30;;;;;;;7.25;4.68;;;11.40;69.20;;;;;;5062809;28;20047;-76
2023/04/15 09:15:57;;;;;;;5.47;4.22;;;11.50;69.20;;;;;;5060140;28;20479;-77
2023/04/15 09:18:31;;;;;;;5.63;3.85;;;11.50;69.60;;;;;;5062411;28;20047;-76
2023/04/15 09:21:11;;;;;;;5.75;3.63;;;11.60;69.30;;;;;;5064189;28;20032;-75
2023/04/15 09:23:40;;;;;;;5.30;3.60;;;11.60;69.00;;;;;;5058977;28;20048;-76
2023/04/15 09:26:06;;;;;;;7.85;4.32;;;11.60;68.80;;;;;;5040464;28;20041;-76
2023/04/15 09:28:34;;;;;;;6.15;4.07;;;11.60;68.60;;;;;;5058269;28;20052;-76
2023/04/15 09:31:01;;;;;;;5.30;3.78;;;11.60;68.30;;;;;;5043233;28;20361;-76
2023/04/15 09:33:29;;;;;;;8.30;4.05;;;11.50;68.50;;;;;;5059359;28;20040;-76
2023/04/15 09:36:04;;;;;;;9.38;4.43;;;11.50;68.50;;;;;;5060629;28;20037;-77
2023/04/15 09:38:31;;;;;;;6.38;3.13;;;11.40;68.60;;;;;;5058917;28;20035;-76
2023/04/15 09:40:58;;;;;;;7.32;3.22;;;11.30;68.50;;;;;;5058708;28;20044;-76
2023/04/15 09:43:39;;;;;;;6.18;3.38;;;11.20;68.40;;;;;;5059659;28;20403;-77
2023/04/15 09:46:05;;;;;;;6.57;3.10;;;11.10;68.30;;;;;;5063337;28;20036;-77
2023/04/15 09:48:31;;;;;;;4.90;2.75;;;11.10;68.90;;;;;;5042272;28;20134;-77
2023/04/15 09:50:58;;;;;;;5.03;2.55;;;11.00;68.80;;;;;;5051666;28;20479;-77
2023/04/15 09:53:25;;;;;;;5.40;2.50;;;11.00;68.90;;;;;;5042746;28;20043;-76
2023/04/15 09:55:53;;;;;;;5.32;2.83;;;11.00;68.90;;;;;;5030896;28;20075;-77
2023/04/15 09:58:23;;;;;;;6.18;3.20;;;11.00;68.90;;;;;;5073617;28;20062;-77
2023/04/15 10:00:50;;;;;;;5.88;2.80;;;11.00;69.10;;;;;;5075295;28;20040;-77
2023/04/15 10:03:23;;;;;;;7.05;3.78;;;11.00;69.10;;;;;;5077560;28;20047;-77
2023/04/15 10:05:51;;;;;;;6.03;3.45;;;11.00;69.30;;;;;;5075248;28;20036;-76
2023/04/15 10:08:20;;;;;;;5.38;2.90;;;11.00;69.30;;;;;;5058356;28;20036;-77
2023/04/15 10:10:47;;;;;;;5.05;3.10;;;11.10;69.30;;;;;;5058920;28;20180;-77
2023/04/15 10:13:28;;;;;;;7.43;2.92;;;11.00;69.20;;;;;;5059115;28;20055;-77
2023/04/15 10:16:06;;;;;;;5.05;2.55;;;11.00;69.30;;;;;;5075127;28;20043;-77
2023/04/15 10:18:34;;;;;;;5.20;2.58;;;11.10;69.70;;;;;;5058468;28;20150;-77
2023/04/15 10:21:01;;;;;;;4.10;2.20;;;11.10;69.90;;;;;;5058350;28;20043;-77
2023/04/15 10:23:27;;;;;;;6.40;2.22;;;11.20;70.20;;;;;;5071769;28;20048;-77
2023/04/15 10:25:53;;;;;;;4.88;2.25;;;11.20;69.00;;;;;;5061109;28;20064;-77
2023/04/15 10:28:20;;;;;;;4.10;2.05;;;11.20;68.80;;;;;;5056261;28;20083;-76
2023/04/15 10:30:47;;;;;;;5.10;2.58;;;11.30;68.80;;;;;;5069315;28;20045;-77
2023/04/15 10:33:16;;;;;;;5.47;2.78;;;11.30;68.80;;;;;;5058482;28;20048;-77
2023/04/15 10:35:41;;;;;;;3.53;2.20;;;11.30;69.10;;;;;;5045758;28;20104;-77
2023/04/15 10:38:44;;;;;;;2.85;1.48;;;11.30;69.20;;;;;;5075367;28;20032;-77
2023/04/15 10:41:14;;;;;;;2.85;1.30;;;11.30;67.00;;;;;;4958917;28;20391;-77
2023/04/15 10:44:06;;;;;;;2.40;1.27;;;11.40;68.00;;;;;;5048567;28;20187;-77
2023/04/15 10:46:46;;;;;;;2.70;1.52;;;11.40;67.30;;;;;;5052985;28;20048;-77
2023/04/15 10:49:13;;;;;;;1.92;1.13;;;11.50;67.10;;;;;;5074977;28;20040;-77
2023/04/15 10:51:46;;;;;;;2.38;1.17;;;11.50;67.00;;;;;;5074917;28;20047;-76
2023/04/15 10:54:30;;;;;;;1.88;1.20;;;11.50;66.30;;;;;;5083516;28;20505;-77
2023/04/15 10:57:00;;;;;;;2.72;1.40;;;11.50;66.60;;;;;;5058184;28;20075;-77
2023/04/15 10:59:29;;;;;;;2.45;1.05;;;11.50;66.30;;;;;;5058335;28;20052;-77
2023/04/15 11:01:59;;;;;;;2.63;1.30;;;11.50;66.10;;;;;;5072092;28;20032;-77
2023/04/15 11:04:54;;;;;;;3.15;1.20;;;11.60;65.80;;;;;;5074546;28;20040;-77
2023/04/15 11:07:38;;;;;;;2.10;1.00;;;11.60;65.40;;;;;;5073104;28;20119;-77
2023/04/15 11:10:16;;;;;;;3.28;1.48;;;11.60;65.40;;;;;;5054930;28;20538;-77
2023/04/15 11:12:42;;;;;;;1.45;0.75;;;11.60;66.00;;;;;;5069045;28;20127;-77
2023/04/15 11:15:44;;;;;;;4.30;1.20;;;11.60;65.80;;;;;;5057996;28;20387;-77
2023/04/15 11:18:13;;;;;;;4.20;1.48;;;11.60;65.20;;;;;;5002536;28;20048;-77
2023/04/15 11:20:43;;;;;;;3.85;1.50;;;11.60;65.60;;;;;;5054725;28;20063;-77
2023/04/15 11:23:09;;;;;;;2.08;1.13;;;11.60;65.90;;;;;;5060431;28;20040;-77
2023/04/15 11:25:38;;;;;;;2.22;1.23;;;11.60;66.30;;;;;;5075529;28;20065;-77
2023/04/15 11:28:05;;;;;;;2.10;1.20;;;11.60;66.60;;;;;;5056256;28;20049;-77
2023/04/15 11:30:34;;;;;;;2.63;0.93;;;11.70;66.20;;;;;;5074693;28;20110;-77
2023/04/15 11:33:02;;;;;;;1.42;0.90;;;11.70;66.00;;;;;;5060618;28;20055;-77
2023/04/15 11:35:29;;;;;;;2.72;1.35;;;11.70;65.70;;;;;;5057406;28;20040;-77
2023/04/15 11:37:55;;;;;;;1.65;0.88;;;11.70;65.10;;;;;;5063407;28;20547;-77
2023/04/15 11:40:27;;;;;;;2.72;1.23;;;11.70;65.10;;;;;;5098286;28;20122;-77
2023/04/15 11:43:06;;;;;;;2.35;1.38;;;11.70;65.70;;;;;;5089714;28;20036;-77
2023/04/15 11:45:32;;;;;;;2.80;1.38;;;11.70;65.90;;;;;;5057857;28;20044;-77
2023/04/15 11:48:10;;;;;;;3.15;1.30;;;11.60;65.60;;;;;;5041234;28;20575;-77
2023/04/15 11:50:39;;;;;;;3.45;1.30;;;11.60;65.10;;;;;;5059644;28;20051;-77
2023/04/15 11:53:06;;;;;;;3.08;1.55;;;11.60;65.50;;;;;;5098184;28;20044;-77
2023/04/15 11:55:47;;;;;;;3.50;1.40;;;11.60;65.90;;;;;;5098196;28;20075;-77
2023/04/15 11:58:19;;;;;;;5.65;1.63;;;11.60;66.00;;;;;;5041499;28;20055;-77
2023/04/15 12:00:51;;;;;;;3.10;1.67;;;11.70;66.00;;;;;;5057563;28;20506;-77
2023/04/15 12:03:19;;;;;;;3.30;1.42;;;11.70;66.30;;;;;;5053434;28;20479;-77
2023/04/15 12:06:20;;;;;;;6.95;2.30;;;11.70;66.00;;;;;;5080987;28;20114;-77
2023/04/15 12:09:00;;;;;;;4.25;1.98;;;11.70;65.80;;;;;;5062630;28;20040;-77
2023/04/15 12:11:25;;;;;;;4.10;2.25;;;11.70;66.50;;;;;;5060984;28;20040;-77
2023/04/15 12:13:54;;;;;;;4.68;2.42;;;11.70;66.50;;;;;;5077463;28;20256;-77
2023/04/15 12:16:21;;;;;;;4.53;2.90;;;11.60;66.40;;;;;;5077167;28;20127;-77
2023/04/15 12:18:55;;;;;;;4.60;1.98;;;11.60;66.70;;;;;;5065366;28;20096;-76
2023/04/15 12:21:22;;;;;;;6.65;2.20;;;11.60;66.70;;;;;;5097664;28;20031;-77
2023/04/15 12:23:52;;;;;;;4.30;2.10;;;11.60;66.70;;;;;;5080693;28;20130;-77
2023/04/15 12:26:26;;;;;;;4.57;2.35;;;11.50;66.90;;;;;;5097431;28;20482;-77
2023/04/15 12:28:59;;;;;;;4.65;2.28;;;11.50;67.20;;;;;;5097421;28;20047;-77
2023/04/15 12:31:25;;;;;;;6.80;2.40;;;11.50;67.50;;;;;;5080868;28;20040;-77
2023/04/15 12:33:50;;;;;;;4.28;1.90;;;11.50;68.00;;;;;;5061469;28;20451;-77
2023/04/15 12:36:16;;;;;;;7.72;2.30;;;11.60;68.50;;;;;;5080556;28;20051;-77
2023/04/15 12:38:42;;;;;;;7.03;2.20;;;11.60;68.10;;;;;;5097569;28;20525;-77
2023/04/15 12:41:07;;;;;;;6.97;2.22;;;11.60;67.80;;;;;;5063727;28;20039;-77
2023/04/15 12:43:33;;;;;;;8.10;1.92;;;11.60;67.70;;;;;;5063347;28;20077;-78
2023/04/15 12:45:59;;;;;;;7.57;2.17;;;11.60;67.90;;;;;;5036435;28;20528;-77
2023/04/15 12:48:25;;;;;;;10.88;2.30;;;11.60;67.90;;;;;;5023901;28;20037;-77
2023/04/15 12:50:50;;;;;;;7.75;1.70;;;11.50;67.60;;;;;;5040185;28;20373;-77
2023/04/15 12:53:17;;;;;;;6.00;2.17;;;11.60;68.00;;;;;;5023868;28;20041;-77